sensor_id;sensor_type;location;lat;lon;timestamp;P1;durP1;ratioP1;P2;durP2;ratioP2
75820;SDS011;64454;51.984;9.838;2023-07-09T00:00:11;6.03;;;4.60;;
75820;SDS011;64454;51.984;9.838;2023-07-09T00:02:42;6.03;;;4.87;;
75820;SDS011;64454;51.984;9.838;2023-07-09T00:05:13;5.90;;;4.82;;
75820;SDS011;64454;51.984;9.838;2023-07-09T00:07:43;4.93;;;3.93;;
75820;SDS011;64454;51.984;9.838;2023-07-09T00:10:17;5.25;;;4.18;;
75820;SDS011;64454;51.984;9.838;2023-07-09T00:12:46;7.00;;;4.37;;
75820;SDS011;64454;51.984;9.838;2023-07-09T00:15:14;5.95;;;4.30;;
75820;SDS011;64454;51.984;9.838;2023-07-09T00:17:43;6.57;;;4.40;;
75820;SDS011;64454;51.984;9.838;2023-07-09T00:20:13;6.30;;;4.30;;
75820;SDS011;64454;51.984;9.838;2023-07-09T00:22:44;4.65;;;4.00;;
75820;SDS011;64454;51.984;9.838;2023-07-09T00:25:17;6.40;;;4.63;;
75820;SDS011;64454;51.984;9.838;2023-07-09T00:27:45;6.30;;;4.68;;
75820;SDS011;64454;51.984;9.838;2023-07-09T00:30:15;6.57;;;4.90;;
75820;SDS011;64454;51.984;9.838;2023-07-09T00:32:45;6.28;;;4.82;;
75820;SDS011;64454;51.984;9.838;2023-07-09T00:35:13;5.85;;;4.50;;
75820;SDS011;64454;51.984;9.838;2023-07-09T00:37:41;4.90;;;4.40;;
75820;SDS011;64454;51.984;9.838;2023-07-09T00:40:16;5.90;;;4.55;;
75820;SDS011;64454;51.984;9.838;2023-07-09T00:42:47;5.25;;;4.20;;
75820;SDS011;64454;51.984;9.838;2023-07-09T00:45:18;5.88;;;4.53;;
75820;SDS011;64454;51.984;9.838;2023-07-09T00:47:48;5.65;;;4.30;;
75820;SDS011;64454;51.984;9.838;2023-07-09T00:50:24;6.10;;;4.50;;
75820;SDS011;64454;51.984;9.838;2023-07-09T00:53:02;5.28;;;4.68;;
75820;SDS011;64454;51.984;9.838;2023-07-09T00:55:42;5.78;;;4.18;;
75820;SDS011;64454;51.984;9.838;2023-07-09T00:58:16;4.90;;;4.13;;
75820;SDS011;64454;51.984;9.838;2023-07-09T01:00:46;5.90;;;4.90;;
75820;SDS011;64454;51.984;9.838;2023-07-09T01:03:21;5.53;;;4.00;;
75820;SDS011;64454;51.984;9.838;2023-07-09T01:05:56;6.20;;;4.60;;
75820;SDS011;64454;51.984;9.838;2023-07-09T01:08:24;4.65;;;4.03;;
75820;SDS011;64454;51.984;9.838;2023-07-09T01:10:55;5.70;;;4.70;;
75820;SDS011;64454;51.984;9.838;2023-07-09T01:13:24;4.80;;;4.30;;
75820;SDS011;64454;51.984;9.838;2023-07-09T01:15:53;4.25;;;3.85;;
75820;SDS011;64454;51.984;9.838;2023-07-09T01:18:21;6.40;;;4.18;;
75820;SDS011;64454;51.984;9.838;2023-07-09T01:20:49;8.30;;;4.30;;
75820;SDS011;64454;51.984;9.838;2023-07-09T01:23:19;6.22;;;4.00;;
75820;SDS011;64454;51.984;9.838;2023-07-09T01:25:51;4.40;;;4.00;;
75820;SDS011;64454;51.984;9.838;2023-07-09T01:28:19;5.00;;;4.13;;
75820;SDS011;64454;51.984;9.838;2023-07-09T01:30:47;4.95;;;4.03;;
75820;SDS011;64454;51.984;9.838;2023-07-09T01:33:19;4.57;;;4.00;;
75820;SDS011;64454;51.984;9.838;2023-07-09T01:35:48;6.20;;;4.30;;
75820;SDS011;64454;51.984;9.838;2023-07-09T01:38:14;5.60;;;4.45;;
75820;SDS011;64454;51.984;9.838;2023-07-09T01:40:43;5.80;;;4.10;;
75820;SDS011;64454;51.984;9.838;2023-07-09T01:43:11;5.38;;;4.15;;
75820;SDS011;64454;51.984;9.838;2023-07-09T01:45:38;5.63;;;4.70;;
75820;SDS011;64454;51.984;9.838;2023-07-09T01:48:05;4.70;;;4.05;;
75820;SDS011;64454;51.984;9.838;2023-07-09T01:50:40;6.13;;;4.23;;
75820;SDS011;64454;51.984;9.838;2023-07-09T01:53:08;5.35;;;4.20;;
75820;SDS011;64454;51.984;9.838;2023-07-09T01:55:36;5.55;;;4.40;;
75820;SDS011;64454;51.984;9.838;2023-07-09T01:58:04;5.80;;;4.57;;
75820;SDS011;64454;51.984;9.838;2023-07-09T02:00:31;4.63;;;4.03;;
75820;SDS011;64454;51.984;9.838;2023-07-09T02:02:59;7.50;;;4.60;;
75820;SDS011;64454;51.984;9.838;2023-07-09T02:05:28;7.75;;;4.18;;
75820;SDS011;64454;51.984;9.838;2023-07-09T02:07:57;6.30;;;4.10;;
75820;SDS011;64454;51.984;9.838;2023-07-09T02:10:24;5.60;;;4.40;;
75820;SDS011;64454;51.984;9.838;2023-07-09T02:12:51;6.57;;;4.45;;
75820;SDS011;64454;51.984;9.838;2023-07-09T02:15:20;5.85;;;4.50;;
75820;SDS011;64454;51.984;9.838;2023-07-09T02:17:47;5.35;;;4.60;;
75820;SDS011;64454;51.984;9.838;2023-07-09T02:20:14;5.10;;;4.60;;
75820;SDS011;64454;51.984;9.838;2023-07-09T02:22:41;5.25;;;4.53;;
75820;SDS011;64454;51.984;9.838;2023-07-09T02:25:08;7.10;;;4.50;;
75820;SDS011;64454;51.984;9.838;2023-07-09T02:27:35;4.90;;;4.30;;
75820;SDS011;64454;51.984;9.838;2023-07-09T02:30:04;7.90;;;4.70;;
75820;SDS011;64454;51.984;9.838;2023-07-09T02:32:34;5.30;;;4.30;;
75820;SDS011;64454;51.984;9.838;2023-07-09T02:35:01;6.50;;;3.60;;
75820;SDS011;64454;51.984;9.838;2023-07-09T02:37:29;6.55;;;4.45;;
75820;SDS011;64454;51.984;9.838;2023-07-09T02:39:56;5.70;;;4.32;;
75820;SDS011;64454;51.984;9.838;2023-07-09T02:42:23;5.72;;;4.75;;
75820;SDS011;64454;51.984;9.838;2023-07-09T02:44:50;5.90;;;4.50;;
75820;SDS011;64454;51.984;9.838;2023-07-09T02:47:18;4.57;;;4.05;;
75820;SDS011;64454;51.984;9.838;2023-07-09T02:49:46;5.45;;;4.00;;
75820;SDS011;64454;51.984;9.838;2023-07-09T02:52:13;5.28;;;4.40;;
75820;SDS011;64454;51.984;9.838;2023-07-09T02:54:40;5.10;;;4.18;;
75820;SDS011;64454;51.984;9.838;2023-07-09T02:57:07;5.68;;;4.43;;
75820;SDS011;64454;51.984;9.838;2023-07-09T02:59:34;6.28;;;4.40;;
75820;SDS011;64454;51.984;9.838;2023-07-09T03:02:01;6.93;;;5.03;;
75820;SDS011;64454;51.984;9.838;2023-07-09T03:04:28;5.20;;;4.40;;
75820;SDS011;64454;51.984;9.838;2023-07-09T03:06:58;5.82;;;4.20;;
75820;SDS011;64454;51.984;9.838;2023-07-09T03:09:26;5.35;;;4.22;;
75820;SDS011;64454;51.984;9.838;2023-07-09T03:11:53;6.40;;;4.85;;
75820;SDS011;64454;51.984;9.838;2023-07-09T03:14:20;5.78;;;4.25;;
75820;SDS011;64454;51.984;9.838;2023-07-09T03:16:47;5.65;;;4.30;;
75820;SDS011;64454;51.984;9.838;2023-07-09T03:19:15;6.82;;;4.20;;
75820;SDS011;64454;51.984;9.838;2023-07-09T03:21:44;5.85;;;4.47;;
75820;SDS011;64454;51.984;9.838;2023-07-09T03:24:13;5.13;;;4.10;;
75820;SDS011;64454;51.984;9.838;2023-07-09T03:26:43;5.07;;;4.40;;
75820;SDS011;64454;51.984;9.838;2023-07-09T03:29:10;4.90;;;4.40;;
75820;SDS011;64454;51.984;9.838;2023-07-09T03:31:37;4.55;;;4.00;;
75820;SDS011;64454;51.984;9.838;2023-07-09T03:34:04;6.70;;;5.03;;
75820;SDS011;64454;51.984;9.838;2023-07-09T03:36:32;4.40;;;4.00;;
75820;SDS011;64454;51.984;9.838;2023-07-09T03:39:00;6.20;;;4.50;;
75820;SDS011;64454;51.984;9.838;2023-07-09T03:41:29;6.60;;;4.03;;
75820;SDS011;64454;51.984;9.838;2023-07-09T03:43:55;5.70;;;4.30;;
75820;SDS011;64454;51.984;9.838;2023-07-09T03:46:22;4.30;;;3.90;;
75820;SDS011;64454;51.984;9.838;2023-07-09T03:48:49;6.03;;;4.20;;
75820;SDS011;64454;51.984;9.838;2023-07-09T03:51:16;5.10;;;4.30;;
75820;SDS011;64454;51.984;9.838;2023-07-09T03:53:43;6.20;;;4.90;;
75820;SDS011;64454;51.984;9.838;2023-07-09T03:56:10;4.73;;;4.03;;
75820;SDS011;64454;51.984;9.838;2023-07-09T03:58:38;5.38;;;4.45;;
75820;SDS011;64454;51.984;9.838;2023-07-09T04:01:05;7.28;;;4.70;;
75820;SDS011;64454;51.984;9.838;2023-07-09T04:03:32;7.07;;;4.15;;
75820;SDS011;64454;51.984;9.838;2023-07-09T04:05:59;6.13;;;4.60;;
75820;SDS011;64454;51.984;9.838;2023-07-09T04:08:25;5.00;;;4.40;;
75820;SDS011;64454;51.984;9.838;2023-07-09T04:10:53;6.38;;;4.50;;
75820;SDS011;64454;51.984;9.838;2023-07-09T04:13:21;4.85;;;3.97;;
75820;SDS011;64454;51.984;9.838;2023-07-09T04:15:49;6.35;;;4.40;;
75820;SDS011;64454;51.984;9.838;2023-07-09T04:18:16;4.85;;;4.20;;
75820;SDS011;64454;51.984;9.838;2023-07-09T04:20:43;5.75;;;4.22;;
75820;SDS011;64454;51.984;9.838;2023-07-09T04:23:15;6.70;;;4.40;;
75820;SDS011;64454;51.984;9.838;2023-07-09T04:25:42;5.10;;;4.40;;
75820;SDS011;64454;51.984;9.838;2023-07-09T04:28:09;5.20;;;4.60;;
75820;SDS011;64454;51.984;9.838;2023-07-09T04:30:37;5.60;;;4.57;;
75820;SDS011;64454;51.984;9.838;2023-07-09T04:33:05;5.55;;;4.65;;
75820;SDS011;64454;51.984;9.838;2023-07-09T04:35:34;4.97;;;4.47;;
75820;SDS011;64454;51.984;9.838;2023-07-09T04:38:01;5.35;;;4.30;;
75820;SDS011;64454;51.984;9.838;2023-07-09T04:40:28;5.55;;;4.50;;
75820;SDS011;64454;51.984;9.838;2023-07-09T04:42:56;6.20;;;3.97;;
75820;SDS011;64454;51.984;9.838;2023-07-09T04:45:23;6.75;;;4.70;;
75820;SDS011;64454;51.984;9.838;2023-07-09T04:47:49;4.50;;;4.10;;
75820;SDS011;64454;51.984;9.838;2023-07-09T04:50:19;5.32;;;4.65;;
75820;SDS011;64454;51.984;9.838;2023-07-09T04:52:45;4.50;;;4.10;;
75820;SDS011;64454;51.984;9.838;2023-07-09T04:55:12;5.30;;;4.30;;
75820;SDS011;64454;51.984;9.838;2023-07-09T04:57:39;8.35;;;5.13;;
75820;SDS011;64454;51.984;9.838;2023-07-09T05:00:06;5.97;;;4.90;;
75820;SDS011;64454;51.984;9.838;2023-07-09T05:02:35;4.90;;;4.40;;
75820;SDS011;64454;51.984;9.838;2023-07-09T05:05:02;5.45;;;4.47;;
75820;SDS011;64454;51.984;9.838;2023-07-09T05:07:31;5.30;;;4.22;;
75820;SDS011;64454;51.984;9.838;2023-07-09T05:09:58;7.70;;;4.88;;
75820;SDS011;64454;51.984;9.838;2023-07-09T05:12:26;5.32;;;4.82;;
75820;SDS011;64454;51.984;9.838;2023-07-09T05:14:54;5.80;;;4.20;;
75820;SDS011;64454;51.984;9.838;2023-07-09T05:17:21;6.30;;;4.68;;
75820;SDS011;64454;51.984;9.838;2023-07-09T05:19:49;5.40;;;4.80;;
75820;SDS011;64454;51.984;9.838;2023-07-09T05:22:16;5.40;;;4.90;;
75820;SDS011;64454;51.984;9.838;2023-07-09T05:24:44;6.50;;;4.60;;
75820;SDS011;64454;51.984;9.838;2023-07-09T05:27:11;6.87;;;5.13;;
75820;SDS011;64454;51.984;9.838;2023-07-09T05:29:38;6.43;;;4.95;;
75820;SDS011;64454;51.984;9.838;2023-07-09T05:32:05;6.95;;;4.93;;
75820;SDS011;64454;51.984;9.838;2023-07-09T05:34:32;6.97;;;4.75;;
75820;SDS011;64454;51.984;9.838;2023-07-09T05:36:59;5.63;;;4.50;;
75820;SDS011;64454;51.984;9.838;2023-07-09T05:39:26;6.30;;;4.13;;
75820;SDS011;64454;51.984;9.838;2023-07-09T05:41:54;6.32;;;4.68;;
75820;SDS011;64454;51.984;9.838;2023-07-09T05:44:21;6.18;;;4.93;;
75820;SDS011;64454;51.984;9.838;2023-07-09T05:46:48;6.68;;;5.28;;
75820;SDS011;64454;51.984;9.838;2023-07-09T05:49:15;5.32;;;4.70;;
75820;SDS011;64454;51.984;9.838;2023-07-09T05:51:45;4.78;;;4.28;;
75820;SDS011;64454;51.984;9.838;2023-07-09T05:54:11;6.13;;;4.82;;
75820;SDS011;64454;51.984;9.838;2023-07-09T05:56:39;5.47;;;4.60;;
75820;SDS011;64454;51.984;9.838;2023-07-09T05:59:07;5.10;;;4.60;;
75820;SDS011;64454;51.984;9.838;2023-07-09T06:01:35;7.38;;;5.10;;
75820;SDS011;64454;51.984;9.838;2023-07-09T06:04:01;8.32;;;6.00;;
75820;SDS011;64454;51.984;9.838;2023-07-09T06:06:28;8.50;;;5.10;;
75820;SDS011;64454;51.984;9.838;2023-07-09T06:08:56;6.57;;;5.45;;
75820;SDS011;64454;51.984;9.838;2023-07-09T06:11:23;7.10;;;5.53;;
75820;SDS011;64454;51.984;9.838;2023-07-09T06:13:50;7.10;;;6.10;;
75820;SDS011;64454;51.984;9.838;2023-07-09T06:16:19;6.40;;;5.22;;
75820;SDS011;64454;51.984;9.838;2023-07-09T06:18:46;6.93;;;5.45;;
75820;SDS011;64454;51.984;9.838;2023-07-09T06:21:13;5.50;;;5.00;;
75820;SDS011;64454;51.984;9.838;2023-07-09T06:23:40;8.57;;;5.50;;
75820;SDS011;64454;51.984;9.838;2023-07-09T06:26:06;5.95;;;5.28;;
75820;SDS011;64454;51.984;9.838;2023-07-09T06:28:33;7.00;;;5.60;;
75820;SDS011;64454;51.984;9.838;2023-07-09T06:31:00;7.20;;;6.07;;
75820;SDS011;64454;51.984;9.838;2023-07-09T06:33:29;8.75;;;5.70;;
75820;SDS011;64454;51.984;9.838;2023-07-09T06:35:57;7.15;;;5.60;;
75820;SDS011;64454;51.984;9.838;2023-07-09T06:38:27;7.00;;;5.40;;
75820;SDS011;64454;51.984;9.838;2023-07-09T06:40:54;6.80;;;5.53;;
75820;SDS011;64454;51.984;9.838;2023-07-09T06:43:22;5.70;;;5.10;;
75820;SDS011;64454;51.984;9.838;2023-07-09T06:45:51;6.83;;;5.77;;
75820;SDS011;64454;51.984;9.838;2023-07-09T06:48:19;6.40;;;5.35;;
75820;SDS011;64454;51.984;9.838;2023-07-09T06:50:48;5.80;;;5.20;;
75820;SDS011;64454;51.984;9.838;2023-07-09T06:53:15;5.38;;;4.80;;
75820;SDS011;64454;51.984;9.838;2023-07-09T06:55:42;6.38;;;4.80;;
75820;SDS011;64454;51.984;9.838;2023-07-09T06:58:09;6.15;;;5.55;;
75820;SDS011;64454;51.984;9.838;2023-07-09T07:00:37;6.57;;;5.55;;
75820;SDS011;64454;51.984;9.838;2023-07-09T07:03:05;7.40;;;5.55;;
75820;SDS011;64454;51.984;9.838;2023-07-09T07:05:32;7.03;;;5.40;;
75820;SDS011;64454;51.984;9.838;2023-07-09T07:08:01;7.05;;;5.70;;
75820;SDS011;64454;51.984;9.838;2023-07-09T07:10:29;6.22;;;5.25;;
75820;SDS011;64454;51.984;9.838;2023-07-09T07:12:56;6.13;;;5.20;;
75820;SDS011;64454;51.984;9.838;2023-07-09T07:15:23;6.30;;;5.53;;
75820;SDS011;64454;51.984;9.838;2023-07-09T07:17:50;6.72;;;5.25;;
75820;SDS011;64454;51.984;9.838;2023-07-09T07:20:17;7.78;;;5.28;;
75820;SDS011;64454;51.984;9.838;2023-07-09T07:22:45;7.30;;;5.30;;
75820;SDS011;64454;51.984;9.838;2023-07-09T07:25:13;5.20;;;4.47;;
75820;SDS011;64454;51.984;9.838;2023-07-09T07:27:41;6.40;;;5.10;;
75820;SDS011;64454;51.984;9.838;2023-07-09T07:30:08;7.90;;;5.78;;
75820;SDS011;64454;51.984;9.838;2023-07-09T07:32:36;5.45;;;4.80;;
75820;SDS011;64454;51.984;9.838;2023-07-09T07:35:08;6.57;;;4.90;;
75820;SDS011;64454;51.984;9.838;2023-07-09T07:37:35;6.45;;;4.93;;
75820;SDS011;64454;51.984;9.838;2023-07-09T07:40:01;5.80;;;4.68;;
75820;SDS011;64454;51.984;9.838;2023-07-09T07:42:31;5.40;;;4.72;;
75820;SDS011;64454;51.984;9.838;2023-07-09T07:44:58;6.43;;;5.00;;
75820;SDS011;64454;51.984;9.838;2023-07-09T07:47:25;7.70;;;5.20;;
75820;SDS011;64454;51.984;9.838;2023-07-09T07:49:53;6.90;;;4.70;;
75820;SDS011;64454;51.984;9.838;2023-07-09T07:52:20;5.78;;;5.18;;
75820;SDS011;64454;51.984;9.838;2023-07-09T07:54:48;6.63;;;5.00;;
75820;SDS011;64454;51.984;9.838;2023-07-09T07:57:15;8.27;;;5.50;;
75820;SDS011;64454;51.984;9.838;2023-07-09T07:59:43;6.85;;;5.50;;
75820;SDS011;64454;51.984;9.838;2023-07-09T08:02:12;6.25;;;4.88;;
75820;SDS011;64454;51.984;9.838;2023-07-09T08:04:40;5.10;;;4.60;;
75820;SDS011;64454;51.984;9.838;2023-07-09T08:07:08;5.55;;;4.93;;
75820;SDS011;64454;51.984;9.838;2023-07-09T08:09:36;6.88;;;4.85;;
75820;SDS011;64454;51.984;9.838;2023-07-09T08:12:04;5.63;;;5.03;;
75820;SDS011;64454;51.984;9.838;2023-07-09T08:14:36;6.00;;;5.40;;
75820;SDS011;64454;51.984;9.838;2023-07-09T08:17:05;10.10;;;5.53;;
75820;SDS011;64454;51.984;9.838;2023-07-09T08:19:43;6.32;;;5.50;;
75820;SDS011;64454;51.984;9.838;2023-07-09T08:22:11;6.70;;;5.40;;
75820;SDS011;64454;51.984;9.838;2023-07-09T08:24:39;6.97;;;5.20;;
75820;SDS011;64454;51.984;9.838;2023-07-09T08:27:06;5.60;;;5.10;;
75820;SDS011;64454;51.984;9.838;2023-07-09T08:29:34;6.85;;;5.00;;
75820;SDS011;64454;51.984;9.838;2023-07-09T08:32:02;5.70;;;4.70;;
75820;SDS011;64454;51.984;9.838;2023-07-09T08:34:31;6.97;;;4.90;;
75820;SDS011;64454;51.984;9.838;2023-07-09T08:36:58;6.10;;;5.28;;
75820;SDS011;64454;51.984;9.838;2023-07-09T08:39:25;6.30;;;5.07;;
75820;SDS011;64454;51.984;9.838;2023-07-09T08:41:53;5.72;;;5.13;;
75820;SDS011;64454;51.984;9.838;2023-07-09T08:44:39;7.57;;;5.50;;
75820;SDS011;64454;51.984;9.838;2023-07-09T08:47:31;6.20;;;5.50;;
75820;SDS011;64454;51.984;9.838;2023-07-09T08:50:09;5.65;;;5.15;;
75820;SDS011;64454;51.984;9.838;2023-07-09T08:52:40;7.25;;;5.30;;
75820;SDS011;64454;51.984;9.838;2023-07-09T08:55:11;5.68;;;5.07;;
75820;SDS011;64454;51.984;9.838;2023-07-09T08:57:42;6.25;;;5.50;;
75820;SDS011;64454;51.984;9.838;2023-07-09T09:00:14;6.80;;;5.35;;
75820;SDS011;64454;51.984;9.838;2023-07-09T09:02:46;5.60;;;5.00;;
75820;SDS011;64454;51.984;9.838;2023-07-09T09:05:18;5.85;;;5.20;;
75820;SDS011;64454;51.984;9.838;2023-07-09T09:07:50;6.72;;;5.10;;
75820;SDS011;64454;51.984;9.838;2023-07-09T09:10:28;6.95;;;5.40;;
75820;SDS011;64454;51.984;9.838;2023-07-09T09:13:05;6.57;;;5.63;;
75820;SDS011;64454;51.984;9.838;2023-07-09T09:15:39;6.63;;;5.40;;
75820;SDS011;64454;51.984;9.838;2023-07-09T09:18:17;6.45;;;5.55;;
75820;SDS011;64454;51.984;9.838;2023-07-09T09:20:53;6.97;;;5.70;;
75820;SDS011;64454;51.984;9.838;2023-07-09T09:23:28;6.55;;;5.30;;
75820;SDS011;64454;51.984;9.838;2023-07-09T09:26:05;6.60;;;5.22;;
75820;SDS011;64454;51.984;9.838;2023-07-09T09:28:43;7.90;;;5.75;;
75820;SDS011;64454;51.984;9.838;2023-07-09T09:31:10;7.50;;;5.97;;
75820;SDS011;64454;51.984;9.838;2023-07-09T09:33:41;6.10;;;5.50;;
75820;SDS011;64454;51.984;9.838;2023-07-09T09:36:11;7.00;;;5.77;;
75820;SDS011;64454;51.984;9.838;2023-07-09T09:38:43;5.65;;;5.15;;
75820;SDS011;64454;51.984;9.838;2023-07-09T09:41:14;6.15;;;5.18;;
75820;SDS011;64454;51.984;9.838;2023-07-09T09:43:42;8.83;;;5.97;;
75820;SDS011;64454;51.984;9.838;2023-07-09T09:46:16;6.47;;;5.88;;
75820;SDS011;64454;51.984;9.838;2023-07-09T09:48:48;7.25;;;5.63;;
75820;SDS011;64454;51.984;9.838;2023-07-09T09:51:17;5.88;;;5.00;;
75820;SDS011;64454;51.984;9.838;2023-07-09T09:53:46;7.35;;;5.75;;
75820;SDS011;64454;51.984;9.838;2023-07-09T09:56:17;6.20;;;5.60;;
75820;SDS011;64454;51.984;9.838;2023-07-09T09:58:51;7.90;;;5.55;;
75820;SDS011;64454;51.984;9.838;2023-07-09T10:01:22;6.95;;;6.07;;
75820;SDS011;64454;51.984;9.838;2023-07-09T10:03:57;6.60;;;5.53;;
75820;SDS011;64454;51.984;9.838;2023-07-09T10:06:28;6.25;;;5.65;;
75820;SDS011;64454;51.984;9.838;2023-07-09T10:09:05;6.20;;;5.60;;
75820;SDS011;64454;51.984;9.838;2023-07-09T10:11:52;6.45;;;5.65;;
75820;SDS011;64454;51.984;9.838;2023-07-09T10:14:31;7.50;;;6.15;;
75820;SDS011;64454;51.984;9.838;2023-07-09T10:17:11;6.00;;;5.30;;
75820;SDS011;64454;51.984;9.838;2023-07-09T10:19:49;12.52;;;6.32;;
75820;SDS011;64454;51.984;9.838;2023-07-09T10:22:33;5.80;;;5.30;;
75820;SDS011;64454;51.984;9.838;2023-07-09T10:25:10;7.37;;;4.93;;
75820;SDS011;64454;51.984;9.838;2023-07-09T10:28:07;7.50;;;5.40;;
75820;SDS011;64454;51.984;9.838;2023-07-09T10:31:12;6.75;;;5.70;;
75820;SDS011;64454;51.984;9.838;2023-07-09T10:33:50;7.55;;;6.03;;
75820;SDS011;64454;51.984;9.838;2023-07-09T10:36:40;6.65;;;5.72;;
75820;SDS011;64454;51.984;9.838;2023-07-09T10:39:31;5.50;;;5.00;;
75820;SDS011;64454;51.984;9.838;2023-07-09T10:42:03;6.63;;;5.27;;
75820;SDS011;64454;51.984;9.838;2023-07-09T10:44:38;6.70;;;6.05;;
75820;SDS011;64454;51.984;9.838;2023-07-09T10:47:09;7.30;;;6.53;;
75820;SDS011;64454;51.984;9.838;2023-07-09T10:49:44;6.70;;;6.00;;
75820;SDS011;64454;51.984;9.838;2023-07-09T10:52:13;6.95;;;5.90;;
75820;SDS011;64454;51.984;9.838;2023-07-09T10:54:54;5.80;;;5.30;;
75820;SDS011;64454;51.984;9.838;2023-07-09T10:57:29;6.70;;;6.00;;
75820;SDS011;64454;51.984;9.838;2023-07-09T11:02:43;6.88;;;5.60;;
75820;SDS011;64454;51.984;9.838;2023-07-09T11:05:13;6.25;;;5.38;;
75820;SDS011;64454;51.984;9.838;2023-07-09T11:07:43;6.72;;;5.00;;
75820;SDS011;64454;51.984;9.838;2023-07-09T11:10:20;6.60;;;5.10;;
75820;SDS011;64454;51.984;9.838;2023-07-09T11:12:57;6.13;;;4.95;;
75820;SDS011;64454;51.984;9.838;2023-07-09T11:15:30;6.47;;;5.00;;
75820;SDS011;64454;51.984;9.838;2023-07-09T11:18:03;5.00;;;4.50;;
75820;SDS011;64454;51.984;9.838;2023-07-09T11:20:34;8.20;;;4.90;;
75820;SDS011;64454;51.984;9.838;2023-07-09T11:23:17;6.90;;;4.40;;
75820;SDS011;64454;51.984;9.838;2023-07-09T11:25:46;6.68;;;4.63;;
75820;SDS011;64454;51.984;9.838;2023-07-09T11:28:32;7.90;;;5.30;;
75820;SDS011;64454;51.984;9.838;2023-07-09T11:31:05;6.60;;;4.45;;
75820;SDS011;64454;51.984;9.838;2023-07-09T11:33:33;5.80;;;4.90;;
75820;SDS011;64454;51.984;9.838;2023-07-09T11:36:12;6.50;;;5.30;;
75820;SDS011;64454;51.984;9.838;2023-07-09T11:38:50;5.32;;;4.57;;
75820;SDS011;64454;51.984;9.838;2023-07-09T11:41:26;5.70;;;4.80;;
75820;SDS011;64454;51.984;9.838;2023-07-09T11:44:14;5.82;;;5.10;;
75820;SDS011;64454;51.984;9.838;2023-07-09T11:49:45;6.68;;;5.20;;
75820;SDS011;64454;51.984;9.838;2023-07-09T11:52:19;6.95;;;4.72;;
75820;SDS011;64454;51.984;9.838;2023-07-09T11:54:54;5.50;;;4.72;;
75820;SDS011;64454;51.984;9.838;2023-07-09T11:57:21;5.63;;;4.20;;
75820;SDS011;64454;51.984;9.838;2023-07-09T11:59:48;6.80;;;4.20;;
75820;SDS011;64454;51.984;9.838;2023-07-09T12:02:16;5.85;;;4.30;;
75820;SDS011;64454;51.984;9.838;2023-07-09T12:04:47;7.33;;;4.57;;
75820;SDS011;64454;51.984;9.838;2023-07-09T12:07:17;7.80;;;4.43;;
75820;SDS011;64454;51.984;9.838;2023-07-09T12:09:48;6.00;;;4.20;;
75820;SDS011;64454;51.984;9.838;2023-07-09T12:12:20;5.00;;;4.50;;
75820;SDS011;64454;51.984;9.838;2023-07-09T12:14:50;5.10;;;4.60;;
75820;SDS011;64454;51.984;9.838;2023-07-09T12:17:17;7.18;;;4.22;;
75820;SDS011;64454;51.984;9.838;2023-07-09T12:19:44;5.67;;;4.40;;
75820;SDS011;64454;51.984;9.838;2023-07-09T12:22:14;5.20;;;4.00;;
75820;SDS011;64454;51.984;9.838;2023-07-09T12:24:47;6.38;;;4.22;;
75820;SDS011;64454;51.984;9.838;2023-07-09T12:27:21;5.07;;;4.13;;
75820;SDS011;64454;51.984;9.838;2023-07-09T12:29:51;7.77;;;4.13;;
75820;SDS011;64454;51.984;9.838;2023-07-09T12:32:20;6.22;;;4.60;;
75820;SDS011;64454;51.984;9.838;2023-07-09T12:34:52;4.60;;;4.10;;
75820;SDS011;64454;51.984;9.838;2023-07-09T12:37:20;6.97;;;4.80;;
75820;SDS011;64454;51.984;9.838;2023-07-09T12:39:50;7.88;;;4.80;;
75820;SDS011;64454;51.984;9.838;2023-07-09T12:42:19;5.35;;;4.07;;
75820;SDS011;64454;51.984;9.838;2023-07-09T12:44:58;7.20;;;4.03;;
75820;SDS011;64454;51.984;9.838;2023-07-09T12:47:26;5.88;;;4.30;;
75820;SDS011;64454;51.984;9.838;2023-07-09T12:50:00;5.35;;;3.90;;
75820;SDS011;64454;51.984;9.838;2023-07-09T12:52:29;5.90;;;4.50;;
75820;SDS011;64454;51.984;9.838;2023-07-09T12:54:56;5.22;;;4.25;;
75820;SDS011;64454;51.984;9.838;2023-07-09T12:57:26;5.60;;;4.50;;
75820;SDS011;64454;51.984;9.838;2023-07-09T12:59:55;5.38;;;4.25;;
75820;SDS011;64454;51.984;9.838;2023-07-09T13:02:24;7.93;;;4.80;;
75820;SDS011;64454;51.984;9.838;2023-07-09T13:04:58;6.43;;;4.35;;
75820;SDS011;64454;51.984;9.838;2023-07-09T13:07:30;6.40;;;4.60;;
75820;SDS011;64454;51.984;9.838;2023-07-09T13:10:04;6.78;;;4.60;;
75820;SDS011;64454;51.984;9.838;2023-07-09T13:12:44;6.35;;;4.70;;
75820;SDS011;64454;51.984;9.838;2023-07-09T13:15:26;6.60;;;4.50;;
75820;SDS011;64454;51.984;9.838;2023-07-09T13:17:59;6.20;;;4.40;;
75820;SDS011;64454;51.984;9.838;2023-07-09T13:20:29;8.53;;;5.20;;
75820;SDS011;64454;51.984;9.838;2023-07-09T13:22:59;5.95;;;4.88;;
75820;SDS011;64454;51.984;9.838;2023-07-09T13:25:27;7.55;;;4.75;;
75820;SDS011;64454;51.984;9.838;2023-07-09T13:27:55;8.80;;;5.60;;
75820;SDS011;64454;51.984;9.838;2023-07-09T13:30:22;6.67;;;4.53;;
75820;SDS011;64454;51.984;9.838;2023-07-09T13:32:49;6.47;;;5.10;;
75820;SDS011;64454;51.984;9.838;2023-07-09T13:35:17;5.07;;;4.05;;
75820;SDS011;64454;51.984;9.838;2023-07-09T13:37:45;6.13;;;4.13;;
75820;SDS011;64454;51.984;9.838;2023-07-09T13:40:13;5.70;;;4.25;;
75820;SDS011;64454;51.984;9.838;2023-07-09T13:42:42;6.78;;;5.28;;
75820;SDS011;64454;51.984;9.838;2023-07-09T13:45:16;6.40;;;4.88;;
75820;SDS011;64454;51.984;9.838;2023-07-09T13:47:48;5.90;;;4.80;;
75820;SDS011;64454;51.984;9.838;2023-07-09T13:50:16;4.97;;;4.40;;
75820;SDS011;64454;51.984;9.838;2023-07-09T13:52:44;6.80;;;5.10;;
75820;SDS011;64454;51.984;9.838;2023-07-09T13:55:15;5.60;;;4.73;;
75820;SDS011;64454;51.984;9.838;2023-07-09T13:57:45;7.28;;;4.70;;
75820;SDS011;64454;51.984;9.838;2023-07-09T14:00:13;6.20;;;4.85;;
75820;SDS011;64454;51.984;9.838;2023-07-09T14:02:42;8.82;;;4.50;;
75820;SDS011;64454;51.984;9.838;2023-07-09T14:05:12;6.60;;;4.57;;
75820;SDS011;64454;51.984;9.838;2023-07-09T14:07:40;6.65;;;4.70;;
75820;SDS011;64454;51.984;9.838;2023-07-09T14:10:10;6.55;;;4.95;;
75820;SDS011;64454;51.984;9.838;2023-07-09T14:12:43;6.30;;;4.70;;
75820;SDS011;64454;51.984;9.838;2023-07-09T14:15:13;6.57;;;4.28;;
75820;SDS011;64454;51.984;9.838;2023-07-09T14:17:46;6.47;;;4.85;;
75820;SDS011;64454;51.984;9.838;2023-07-09T14:20:14;7.50;;;5.07;;
75820;SDS011;64454;51.984;9.838;2023-07-09T14:22:43;6.13;;;4.97;;
75820;SDS011;64454;51.984;9.838;2023-07-09T14:25:15;5.63;;;4.57;;
75820;SDS011;64454;51.984;9.838;2023-07-09T14:27:45;7.80;;;4.85;;
75820;SDS011;64454;51.984;9.838;2023-07-09T14:30:15;6.43;;;5.25;;
75820;SDS011;64454;51.984;9.838;2023-07-09T14:32:47;7.25;;;5.00;;
75820;SDS011;64454;51.984;9.838;2023-07-09T14:35:17;7.40;;;5.30;;
75820;SDS011;64454;51.984;9.838;2023-07-09T14:37:47;5.93;;;4.78;;
75820;SDS011;64454;51.984;9.838;2023-07-09T14:40:16;7.40;;;5.00;;
75820;SDS011;64454;51.984;9.838;2023-07-09T14:42:46;6.95;;;4.90;;
75820;SDS011;64454;51.984;9.838;2023-07-09T14:45:18;7.20;;;4.93;;
75820;SDS011;64454;51.984;9.838;2023-07-09T14:47:50;7.40;;;5.32;;
75820;SDS011;64454;51.984;9.838;2023-07-09T14:50:18;8.77;;;5.40;;
75820;SDS011;64454;51.984;9.838;2023-07-09T14:52:48;6.78;;;5.07;;
75820;SDS011;64454;51.984;9.838;2023-07-09T14:55:16;8.95;;;5.20;;
75820;SDS011;64454;51.984;9.838;2023-07-09T14:57:46;7.45;;;5.57;;
75820;SDS011;64454;51.984;9.838;2023-07-09T15:00:14;6.40;;;4.60;;
75820;SDS011;64454;51.984;9.838;2023-07-09T15:02:44;6.18;;;5.30;;
75820;SDS011;64454;51.984;9.838;2023-07-09T15:05:15;6.20;;;4.95;;
75820;SDS011;64454;51.984;9.838;2023-07-09T15:07:44;6.85;;;4.88;;
75820;SDS011;64454;51.984;9.838;2023-07-09T15:10:12;6.50;;;4.40;;